Time;durP1;ratioP1;P1;durP2;ratioP2;P2;SDS_P1;SDS_P2;PMS_P1;PMS_P2;Temp;Humidity;BMP_temperature;BMP_pressure;BME280_temperature;BME280_humidity;BME280_pressure;Samples;Min_cycle;Max_cycle;Signal;HPM_P1;HPM_P2
2023/12/17 00:04:14;;;;;;;9.8;5.1;;;;;;;3.69;81.31;;;;;
2023/12/17 00:14:15;;;;;;;9.8;5.1;;;;;;;3.78;81.07;;;;;
2023/12/17 00:25:14;;;;;;;12.5;6.8;;;;;;;3.86;80.61;;;;;
2023/12/17 00:35:14;;;;;;;12.5;6.8;;;;;;;3.92;80.25;;;;;
2023/12/17 00:46:14;;;;;;;12.5;6.8;;;;;;;4;80.06;;;;;
2023/12/17 00:56:14;;;;;;;11;6;;;;;;;4.04;79.79;;;;;
2023/12/17 01:06:15;;;;;;;11;6;;;;;;;4.22;79.56;;;;;
2023/12/17 01:16:15;;;;;;;11;6;;;;;;;4.36;78.91;;;;;
2023/12/17 01:27:15;;;;;;;12.1;5.8;;;;;;;4.47;78.58;;;;;
2023/12/17 01:37:15;;;;;;;12.1;5.8;;;;;;;4.49;78.75;;;;;
2023/12/17 01:48:15;;;;;;;12.1;5.8;;;;;;;4.59;78.51;;;;;
2023/12/17 01:58:15;;;;;;;9.5;5.8;;;;;;;4.59;78.57;;;;;
2023/12/17 02:09:15;;;;;;;9.5;5.8;;;;;;;4.66;78.8;;;;;
2023/12/17 02:20:14;;;;;;;9.5;5.8;;;;;;;4.63;78.78;;;;;
2023/12/17 02:30:15;;;;;;;10.4;5.1;;;;;;;4.68;78.68;;;;;
2023/12/17 02:41:15;;;;;;;10.4;5.1;;;;;;;4.75;78.89;;;;;
2023/12/17 02:52:15;;;;;;;10.4;5.1;;;;;;;4.76;78.71;;;;;
2023/12/17 03:03:15;;;;;;;10.4;5;;;;;;;4.8;78.62;;;;;
2023/12/17 03:13:15;;;;;;;10.4;5;;;;;;;4.8;78.73;;;;;
2023/12/17 03:23:15;;;;;;;9.8;5.1;;;;;;;4.65;78.95;;;;;
2023/12/17 03:33:15;;;;;;;9.8;5.1;;;;;;;4.41;79.63;;;;;
2023/12/17 03:43:15;;;;;;;9.8;5.1;;;;;;;4.2;80.21;;;;;
2023/12/17 03:54:15;;;;;;;10;5.3;;;;;;;4.12;80.54;;;;;
2023/12/17 04:04:15;;;;;;;10;5.3;;;;;;;4.01;80.72;;;;;
2023/12/17 04:15:15;;;;;;;10;5.3;;;;;;;3.81;81.34;;;;;
2023/12/17 04:25:15;;;;;;;12.2;5.8;;;;;;;3.7;81.53;;;;;
2023/12/17 04:36:15;;;;;;;12.2;5.8;;;;;;;3.57;82.34;;;;;
2023/12/17 04:47:15;;;;;;;12.2;5.8;;;;;;;3.55;82.5;;;;;
2023/12/17 04:57:15;;;;;;;11.2;6.2;;;;;;;3.53;82.5;;;;;
2023/12/17 05:07:16;;;;;;;11.2;6.2;;;;;;;3.43;82.84;;;;;
2023/12/17 05:18:15;;;;;;;11.2;6.2;;;;;;;3.38;83.03;;;;;
2023/12/17 05:28:15;;;;;;;10.4;5.7;;;;;;;3.28;83.57;;;;;
2023/12/17 05:38:16;;;;;;;10.4;5.7;;;;;;;3.23;83.63;;;;;
2023/12/17 05:49:15;;;;;;;10.4;5.7;;;;;;;3.17;83.8;;;;;
2023/12/17 06:00:15;;;;;;;12.3;6.4;;;;;;;3.08;84.59;;;;;
2023/12/17 06:11:16;;;;;;;12.3;6.4;;;;;;;3.11;84.67;;;;;
2023/12/17 06:22:16;;;;;;;11.3;6.4;;;;;;;3.1;84.67;;;;;
2023/12/17 06:32:15;;;;;;;11.3;6.4;;;;;;;3.19;84.69;;;;;
2023/12/17 06:42:15;;;;;;;11.3;6.4;;;;;;;3.25;84.82;;;;;
2023/12/17 06:52:15;;;;;;;12.1;7.3;;;;;;;3.37;84.68;;;;;
2023/12/17 07:03:18;;;;;;;12.1;7.3;;;;;;;3.56;84.63;;;;;
2023/12/17 07:14:15;;;;;;;12.1;7.3;;;;;;;3.9;84.06;;;;;
2023/12/17 07:25:15;;;;;;;16.6;8.2;;;;;;;4.18;82.89;;;;;
2023/12/17 07:35:15;;;;;;;16.6;8.2;;;;;;;4.32;82.28;;;;;
2023/12/17 07:46:15;;;;;;;16.6;8.2;;;;;;;4.55;81.91;;;;;
2023/12/17 07:56:15;;;;;;;17.7;9.7;;;;;;;4.79;81.56;;;;;
2023/12/17 08:07:15;;;;;;;17.7;9.7;;;;;;;4.81;80.96;;;;;
2023/12/17 08:17:15;;;;;;;17.7;9.7;;;;;;;4.99;80.6;;;;;
2023/12/17 08:28:16;;;;;;;15.5;9.9;;;;;;;5.12;80.42;;;;;
2023/12/17 08:38:15;;;;;;;15.5;9.9;;;;;;;5.2;80.07;;;;;
2023/12/17 08:49:15;;;;;;;15.5;9.9;;;;;;;5.26;80.06;;;;;
2023/12/17 08:59:15;;;;;;;16.4;9.4;;;;;;;5.45;79.82;;;;;
2023/12/17 09:10:15;;;;;;;16.4;9.4;;;;;;;5.44;79.82;;;;;
2023/12/17 09:20:15;;;;;;;16.4;9.4;;;;;;;5.62;79.52;;;;;
2023/12/17 09:31:15;;;;;;;17.1;9.7;;;;;;;5.75;79.44;;;;;
2023/12/17 09:41:15;;;;;;;17.1;9.7;;;;;;;6.09;79.14;;;;;
2023/12/17 09:52:15;;;;;;;17.4;11.3;;;;;;;6.33;78.99;;;;;
2023/12/17 10:02:15;;;;;;;17.4;11.3;;;;;;;6.75;77.71;;;;;
2023/12/17 10:12:15;;;;;;;17.4;11.3;;;;;;;6.85;77.06;;;;;
2023/12/17 10:23:15;;;;;;;19.5;11.4;;;;;;;6.89;77.46;;;;;
2023/12/17 10:34:18;;;;;;;19.5;11.4;;;;;;;7.11;77.18;;;;;
2023/12/17 10:44:15;;;;;;;19.5;11.4;;;;;;;7.35;76.52;;;;;
2023/12/17 10:54:15;;;;;;;13.4;8.9;;;;;;;7.42;76.83;;;;;
2023/12/17 11:05:15;;;;;;;13.4;8.9;;;;;;;7.91;75.93;;;;;
2023/12/17 11:15:15;;;;;;;13.4;8.9;;;;;;;8.17;74.76;;;;;
2023/12/17 11:25:15;;;;;;;15.8;11.3;;;;;;;8.4;74.14;;;;;
2023/12/17 11:35:15;;;;;;;15.8;11.3;;;;;;;8.59;74.04;;;;;
2023/12/17 11:46:15;;;;;;;15.8;11.3;;;;;;;8.61;74.88;;;;;
2023/12/17 11:56:15;;;;;;;12.1;7;;;;;;;8.48;74.22;;;;;
2023/12/17 12:07:15;;;;;;;12.1;7;;;;;;;8.35;74.53;;;;;
2023/12/17 12:17:15;;;;;;;12.1;7;;;;;;;8.51;74.58;;;;;
2023/12/17 12:28:15;;;;;;;11.9;7.1;;;;;;;8.66;74.06;;;;;
2023/12/17 12:39:15;;;;;;;11.9;7.1;;;;;;;8.67;73.95;;;;;
2023/12/17 12:49:17;;;;;;;11.9;7.1;;;;;;;8.35;74.89;;;;;
2023/12/17 12:59:15;;;;;;;12.8;7.9;;;;;;;8.13;76.24;;;;;
2023/12/17 13:10:15;;;;;;;12.8;7.9;;;;;;;7.78;77.67;;;;;
2023/12/17 13:20:15;;;;;;;12.8;7.9;;;;;;;7.72;77.81;;;;;
2023/12/17 13:31:16;;;;;;;14.2;7.6;;;;;;;7.66;78.34;;;;;
2023/12/17 13:42:16;;;;;;;14.2;7.6;;;;;;;7.54;78.46;;;;;
2023/12/17 13:52:15;;;;;;;15.9;8.7;;;;;;;7.3;79.39;;;;;
2023/12/17 14:03:15;;;;;;;15.9;8.7;;;;;;;7.13;79.87;;;;;
2023/12/17 14:13:18;;;;;;;15.9;8.7;;;;;;;6.91;80.5;;;;;
2023/12/17 14:24:15;;;;;;;14.4;8.1;;;;;;;6.6;81.55;;;;;
2023/12/17 14:34:15;;;;;;;14.4;8.1;;;;;;;6.48;81.5;;;;;
2023/12/17 14:44:15;;;;;;;14.4;8.1;;;;;;;6.31;81.95;;;;;
2023/12/17 14:55:15;;;;;;;12.6;7.4;;;;;;;6.14;82.68;;;;;
2023/12/17 15:05:15;;;;;;;12.6;7.4;;;;;;;6.06;82.88;;;;;
2023/12/17 15:16:15;;;;;;;12.6;7.4;;;;;;;5.89;83.45;;;;;
2023/12/17 15:26:16;;;;;;;15.3;9.1;;;;;;;5.81;83.59;;;;;
2023/12/17 15:37:16;;;;;;;15.3;9.1;;;;;;;5.67;84.07;;;;;
2023/12/17 15:48:16;;;;;;;15.3;9.1;;;;;;;5.49;84.11;;;;;
2023/12/17 15:59:17;;;;;;;26.7;13.7;;;;;;;5.37;84.73;;;;;
2023/12/17 16:09:16;;;;;;;26.7;13.7;;;;;;;5.19;85.34;;;;;
2023/12/17 16:20:15;;;;;;;26.7;13.7;;;;;;;5.08;85.85;;;;;
2023/12/17 16:31:15;;;;;;;20.6;11.9;;;;;;;5.04;86.27;;;;;
2023/12/17 16:41:15;;;;;;;20.6;11.9;;;;;;;5.08;86.1;;;;;
2023/12/17 16:51:15;;;;;;;20.3;10.9;;;;;;;5.08;86.03;;;;;
2023/12/17 17:02:15;;;;;;;20.3;10.9;;;;;;;5.08;86.17;;;;;
2023/12/17 17:12:15;;;;;;;20.3;10.9;;;;;;;5.1;86.05;;;;;
2023/12/17 17:22:15;;;;;;;19;11.3;;;;;;;5.21;85.6;;;;;
2023/12/17 17:32:15;;;;;;;19;11.3;;;;;;;5.16;85.37;;;;;
2023/12/17 17:43:15;;;;;;;19;11.3;;;;;;;5.15;85.06;;;;;
2023/12/17 17:53:15;;;;;;;27;14.1;;;;;;;5.06;84.89;;;;;
2023/12/17 18:03:15;;;;;;;27;14.1;;;;;;;4.95;85.06;;;;;
2023/12/17 18:14:15;;;;;;;27;14.1;;;;;;;4.75;85.15;;;;;
2023/12/17 18:24:15;;;;;;;23.4;15;;;;;;;4.57;85.19;;;;;
2023/12/17 18:35:15;;;;;;;23.4;15;;;;;;;4.36;85.46;;;;;
2023/12/17 18:45:15;;;;;;;23.4;15;;;;;;;4.18;85.68;;;;;
2023/12/17 18:55:15;;;;;;;24.3;15.6;;;;;;;4.08;86.06;;;;;
2023/12/17 19:05:15;;;;;;;24.3;15.6;;;;;;;4.01;86.13;;;;;
2023/12/17 19:16:19;;;;;;;24.3;15.6;;;;;;;3.97;87.47;;;;;
2023/12/17 19:26:16;;;;;;;31.1;19;;;;;;;4.01;87.12;;;;;
2023/12/17 19:37:15;;;;;;;31.1;19;;;;;;;3.95;87.38;;;;;
2023/12/17 19:48:15;;;;;;;31.1;19;;;;;;;4.01;87.69;;;;;
2023/12/17 19:59:15;;;;;;;30.8;19.7;;;;;;;4.13;87.38;;;;;
2023/12/17 20:10:15;;;;;;;30.8;19.7;;;;;;;4.13;87.02;;;;;
2023/12/17 20:21:16;;;;;;;34;19.2;;;;;;;4.13;86.72;;;;;
2023/12/17 20:31:18;;;;;;;34;19.2;;;;;;;4.12;86.56;;;;;
2023/12/17 20:42:15;;;;;;;34;19.2;;;;;;;4.14;86.19;;;;;
2023/12/17 20:53:15;;;;;;;20.1;12.7;;;;;;;4.15;86;;;;;
2023/12/17 21:03:15;;;;;;;20.1;12.7;;;;;;;4.18;85.94;;;;;
2023/12/17 21:14:15;;;;;;;20.1;12.7;;;;;;;4.5;85.22;;;;;
2023/12/17 21:24:15;;;;;;;20.8;10.3;;;;;;;4.73;84.66;;;;;
2023/12/17 21:34:15;;;;;;;20.8;10.3;;;;;;;4.91;83.84;;;;;
2023/12/17 21:45:15;;;;;;;20.8;10.3;;;;;;;5;83.25;;;;;
2023/12/17 21:56:15;;;;;;;13;7.7;;;;;;;5.02;82.2;;;;;
2023/12/17 22:06:16;;;;;;;13;7.7;;;;;;;4.96;81.68;;;;;
2023/12/17 22:17:15;;;;;;;13;7.7;;;;;;;4.89;81.4;;;;;
2023/12/17 22:28:15;;;;;;;15.9;8.3;;;;;;;4.7;81.37;;;;;
2023/12/17 22:38:15;;;;;;;15.9;8.3;;;;;;;4.6;81.74;;;;;
2023/12/17 22:49:15;;;;;;;15.9;8.3;;;;;;;4.52;81.92;;;;;
2023/12/17 22:59:16;;;;;;;24.3;13.9;;;;;;;4.34;82.67;;;;;
2023/12/17 23:09:15;;;;;;;24.3;13.9;;;;;;;4.2;83.15;;;;;
2023/12/17 23:20:15;;;;;;;22.3;14;;;;;;;4.19;83.06;;;;;
2023/12/17 23:31:16;;;;;;;22.3;14;;;;;;;4.21;83.51;;;;;
2023/12/17 23:41:15;;;;;;;22.3;14;;;;;;;4.2;83.49;;;;;
2023/12/17 23:51:15;;;;;;;18;9.8;;;;;;;4.23;83;;;;;
